Time;durP1;ratioP1;P1;durP2;ratioP2;P2;SDS_P1;SDS_P2;PMS_P1;PMS_P2;Temp;Humidity;BMP_temperature;BMP_pressure;BME280_temperature;BME280_humidity;BME280_pressure;Samples;Min_cycle;Max_cycle;Signal;HPM_P1;HPM_P2
2023/12/02 00:02:27;;;;;;;12.98;7.55;;;;;;;6.30;100.00;100280.47;10500779;28;20033;-65
2023/12/02 00:07:28;;;;;;;11.80;7.00;;;;;;;6.31;100.00;100276.84;10500498;28;20099;-65
2023/12/02 00:12:29;;;;;;;12.40;6.82;;;;;;;6.16;100.00;100265.91;10500259;28;20036;-65
2023/12/02 00:17:30;;;;;;;8.98;5.90;;;;;;;6.17;100.00;100259.69;10483464;28;20086;-65
2023/12/02 00:22:31;;;;;;;12.05;6.38;;;;;;;6.04;100.00;100253.84;10500469;28;20139;-65
2023/12/02 00:27:31;;;;;;;8.32;6.32;;;;;;;5.77;100.00;100213.19;10482127;28;20101;-65
2023/12/02 00:32:32;;;;;;;10.52;5.78;;;;;;;5.83;100.00;100248.72;10499173;28;20128;-65
2023/12/02 00:37:33;;;;;;;8.00;5.88;;;;;;;5.84;100.00;100237.22;10499717;28;20044;-65
2023/12/02 00:42:34;;;;;;;10.38;6.47;;;;;;;5.73;100.00;100231.09;10499203;28;20040;-65
2023/12/02 00:47:35;;;;;;;13.07;6.57;;;;;;;5.64;100.00;100237.22;10481586;28;20047;-65
2023/12/02 00:52:36;;;;;;;11.80;6.85;;;;;;;5.21;100.00;100169.13;10499448;28;20043;-65
2023/12/02 00:57:36;;;;;;;7.20;5.47;;;;;;;5.47;100.00;100241.38;10499547;28;20048;-65
2023/12/02 01:02:37;;;;;;;9.10;6.68;;;;;;;5.21;100.00;100214.72;10498870;28;20048;-65
2023/12/02 01:07:38;;;;;;;11.95;5.90;;;;;;;5.09;100.00;100228.16;10498148;28;20045;-65
2023/12/02 01:12:40;;;;;;;9.77;6.30;;;;;;;5.06;100.00;100207.38;10480615;28;20396;-65
2023/12/02 01:17:41;;;;;;;8.68;6.68;;;;;;;5.01;100.00;100203.31;10498703;28;20055;-65
2023/12/02 01:22:41;;;;;;;9.57;6.28;;;;;;;4.95;100.00;100190.69;10498016;28;20139;-65
2023/12/02 01:27:42;;;;;;;13.32;7.10;;;;;;;5.17;100.00;100217.75;10497911;28;20492;-65
2023/12/02 01:32:43;;;;;;;15.95;6.75;;;;;;;4.94;100.00;100161.91;10479748;28;20055;-65
2023/12/02 01:37:43;;;;;;;10.27;6.80;;;;;;;4.86;100.00;100136.25;10497016;28;20047;-65
2023/12/02 01:42:44;;;;;;;10.02;7.18;;;;;;;5.29;100.00;100200.03;10485930;28;20037;-65
2023/12/02 01:47:46;;;;;;;13.30;7.25;;;;;;;5.30;100.00;100193.81;10454705;28;20037;-65
2023/12/02 01:52:47;;;;;;;9.20;7.13;;;;;;;5.54;100.00;100209.22;10437357;28;20041;-65
2023/12/02 01:57:48;;;;;;;10.90;7.53;;;;;;;5.23;100.00;100154.00;10454806;28;20036;-65
2023/12/02 02:02:49;;;;;;;10.50;7.07;;;;;;;5.59;100.00;100205.16;10455502;28;20040;-65
2023/12/02 02:07:49;;;;;;;11.55;7.43;;;;;;;5.55;100.00;100184.50;10454521;28;20045;-66
2023/12/02 02:12:50;;;;;;;10.65;7.38;;;;;;;5.60;100.00;100184.94;10454932;28;20045;-65
2023/12/02 02:17:51;;;;;;;14.80;7.28;;;;;;;5.65;100.00;100201.13;10454699;28;20144;-65
2023/12/02 02:22:51;;;;;;;12.68;8.50;;;;;;;5.73;100.00;100194.19;10454785;28;20056;-64
2023/12/02 02:27:52;;;;;;;11.88;8.07;;;;;;;5.80;100.00;100212.09;10453126;28;20498;-65
2023/12/02 02:32:53;;;;;;;15.40;7.80;;;;;;;5.85;100.00;100210.69;10436014;28;20072;-65
2023/12/02 02:37:54;;;;;;;12.93;7.78;;;;;;;5.84;100.00;100201.13;10453773;28;20049;-65
2023/12/02 02:42:55;;;;;;;13.05;8.13;;;;;;;5.84;100.00;100195.88;10453458;28;20516;-65
2023/12/02 02:47:55;;;;;;;11.65;8.32;;;;;;;6.01;100.00;100209.31;10454809;28;20041;-65
2023/12/02 02:52:56;;;;;;;15.73;9.02;;;;;;;5.97;100.00;100187.69;10436608;28;20045;-65
2023/12/02 02:57:57;;;;;;;13.80;8.73;;;;;;;5.87;100.00;100178.94;10459626;28;20064;-65
2023/12/02 03:02:58;;;;;;;14.88;10.00;;;;;;;5.87;100.00;100165.75;10461789;28;20044;-65
2023/12/02 03:07:59;;;;;;;15.20;10.68;;;;;;;6.07;100.00;100204.31;10444402;28;20048;-65
2023/12/02 03:12:59;;;;;;;15.65;9.95;;;;;;;6.10;100.00;100198.75;10461616;28;20044;-65
2023/12/02 03:18:00;;;;;;;13.98;10.10;;;;;;;5.73;100.00;100136.22;10461559;28;20037;-65
2023/12/02 03:23:01;;;;;;;15.88;10.45;;;;;;;6.04;100.00;100204.63;10462045;28;20049;-65
2023/12/02 03:28:02;;;;;;;17.50;10.98;;;;;;;6.03;100.00;100184.47;10460803;28;20052;-65
2023/12/02 03:33:03;;;;;;;18.20;11.02;;;;;;;5.93;100.00;100171.31;10460969;28;20136;-65
2023/12/02 03:38:03;;;;;;;15.88;11.07;;;;;;;6.08;100.00;100202.50;10461403;28;20047;-65
2023/12/02 03:43:04;;;;;;;17.63;10.90;;;;;;;6.25;100.00;100222.03;10460250;28;20036;-65
2023/12/02 03:48:05;;;;;;;15.60;11.23;;;;;;;6.29;100.00;100224.25;10460226;28;20040;-65
2023/12/02 03:53:06;;;;;;;15.07;10.38;;;;;;;5.98;100.00;100204.31;10459567;28;20098;-65
2023/12/02 03:58:07;;;;;;;16.05;10.68;;;;;;;6.20;100.00;100230.38;10460020;28;20114;-65
2023/12/02 04:03:08;;;;;;;16.90;10.15;;;;;;;5.79;100.00;100174.34;10459939;28;20036;-65
2023/12/02 04:08:09;;;;;;;23.40;11.30;;;;;;;5.94;100.00;100191.44;10441158;28;20033;-68
2023/12/02 04:13:10;;;;;;;22.08;11.05;;;;;;;5.89;100.00;100172.56;10459307;28;20417;-65
2023/12/02 04:18:11;;;;;;;18.55;10.68;;;;;;;5.93;100.00;100178.41;10459235;28;20492;-65
2023/12/02 04:23:11;;;;;;;23.73;11.20;;;;;;;5.94;100.00;100164.22;10458591;28;20068;-65
2023/12/02 04:28:12;;;;;;;23.90;12.23;;;;;;;5.86;100.00;100171.97;10459094;28;20051;-65
2023/12/02 04:33:13;;;;;;;24.20;14.48;;;;;;;5.87;100.00;100187.66;10459152;28;20110;-65
2023/12/02 04:38:14;;;;;;;25.40;15.63;;;;;;;5.84;100.00;100174.78;10458559;28;20060;-65
2023/12/02 04:43:15;;;;;;;26.73;14.20;;;;;;;5.86;100.00;100159.66;10456974;28;20041;-66
2023/12/02 04:48:15;;;;;;;23.85;13.98;;;;;;;6.03;100.00;100155.47;10457554;28;20128;-65
2023/12/02 04:53:17;;;;;;;25.67;12.68;;;;;;;6.09;100.00;100139.06;10439997;28;20135;-65
2023/12/02 04:58:17;;;;;;;22.65;11.88;;;;;;;5.86;100.00;100098.16;10439916;28;20068;-65
2023/12/02 05:03:18;;;;;;;23.60;12.52;;;;;;;5.92;100.00;100089.69;10457622;28;20064;-65
2023/12/02 05:08:19;;;;;;;26.85;13.07;;;;;;;6.37;100.00;100124.13;10456674;28;20098;-65
2023/12/02 05:13:20;;;;;;;21.02;12.43;;;;;;;6.52;100.00;100134.16;10456759;28;20135;-65
2023/12/02 05:18:21;;;;;;;20.20;12.10;;;;;;;6.66;100.00;100149.50;10439088;28;20060;-65
2023/12/02 05:23:22;;;;;;;23.75;12.90;;;;;;;6.83;100.00;100161.91;10456996;28;20057;-66
2023/12/02 05:28:23;;;;;;;17.25;11.55;;;;;;;6.98;100.00;100175.44;10457201;28;20136;-65
2023/12/02 05:33:24;;;;;;;22.48;11.40;;;;;;;6.70;100.00;100147.41;10456524;28;20037;-67
2023/12/02 05:38:24;;;;;;;16.15;10.90;;;;;;;7.06;100.00;100203.78;10454915;28;20111;-65
2023/12/02 05:43:25;;;;;;;22.30;12.20;;;;;;;7.08;100.00;100194.69;10452650;28;20505;-65
2023/12/02 05:48:26;;;;;;;17.63;11.52;;;;;;;7.20;100.00;100205.88;10435925;28;20091;-65
2023/12/02 05:53:27;;;;;;;18.33;11.68;;;;;;;7.19;100.00;100193.66;10426949;28;20045;-65
2023/12/02 05:58:27;;;;;;;37.92;12.57;;;;;;;7.38;100.00;100208.53;10455225;28;20496;-64
2023/12/02 06:03:28;;;;;;;22.17;12.10;;;;;;;7.05;100.00;100154.53;10454237;28;20056;-64
2023/12/02 06:08:29;;;;;;;18.67;13.05;;;;;;;7.46;100.00;100205.97;10453894;28;20041;-65
2023/12/02 06:13:30;;;;;;;17.98;12.13;;;;;;;7.57;100.00;100191.72;10436108;28;20045;-66
2023/12/02 06:18:30;;;;;;;24.95;14.07;;;;;;;7.72;100.00;100184.88;10454611;28;20048;-64
2023/12/02 06:25:27;;;;;;;18.23;13.07;;;;;;;7.67;100.00;100138.75;10490160;28;20432;-65
2023/12/02 06:30:27;;;;;;;25.98;14.25;;;;;;;8.14;100.00;100178.91;10490578;28;20040;-66
2023/12/02 06:35:28;;;;;;;22.73;13.68;;;;;;;7.94;100.00;100106.03;10486636;28;20091;-68
2023/12/02 06:40:29;;;;;;;22.00;13.30;;;;;;;8.12;100.00;100121.81;10478009;28;20411;-64
2023/12/02 06:45:30;;;;;;;19.95;13.15;;;;;;;8.45;100.00;100155.44;10489833;28;20056;-64
2023/12/02 06:50:30;;;;;;;24.67;12.93;;;;;;;8.57;100.00;100166.56;10476779;28;20047;-63
2023/12/02 06:55:31;;;;;;;22.50;13.48;;;;;;;8.67;100.00;100159.34;10488951;28;20131;-65
2023/12/02 07:00:32;;;;;;;24.15;12.77;;;;;;;8.78;100.00;100147.59;10488725;28;20043;-64
2023/12/02 07:05:33;;;;;;;22.77;13.18;;;;;;;8.88;100.00;100137.72;10488876;28;20075;-64
2023/12/02 07:10:34;;;;;;;22.30;13.93;;;;;;;8.66;100.00;100078.22;10488159;28;20072;-64
2023/12/02 07:15:35;;;;;;;24.98;14.20;;;;;;;8.98;100.00;100134.09;10487812;28;20102;-64
2023/12/02 07:20:36;;;;;;;26.05;13.95;;;;;;;8.98;100.00;100123.50;10488180;28;20044;-64
2023/12/02 07:25:37;;;;;;;22.20;14.40;;;;;;;9.29;100.00;100127.16;10485087;28;20049;-64
2023/12/02 07:30:38;;;;;;;20.95;14.30;;;;;;;9.54;100.00;100113.88;10485829;28;20067;-65
2023/12/02 07:35:38;;;;;;;20.63;14.52;;;;;;;9.90;100.00;100106.41;10466440;28;20114;-65
2023/12/02 07:40:39;;;;;;;24.05;15.68;;;;;;;10.34;99.49;100113.09;10459563;28;20393;-72
2023/12/02 07:45:41;;;;;;;19.65;12.90;;;;;;;10.75;97.92;100103.09;10460484;28;20041;-69
2023/12/02 07:50:42;;;;;;;23.77;12.52;;;;;;;10.86;95.91;100064.66;10459188;28;20404;-69
2023/12/02 07:55:43;;;;;;;18.17;11.55;;;;;;;11.22;94.49;100059.59;10449325;28;20034;-70
2023/12/02 08:00:44;;;;;;;16.40;11.35;;;;;;;11.78;92.51;100067.19;10444302;28;20044;-70
2023/12/02 08:05:45;;;;;;;14.30;9.75;;;;;;;12.32;91.48;100069.59;10448612;28;20051;-69
2023/12/02 08:10:47;;;;;;;21.98;10.70;;;;;;;12.39;90.29;100025.22;10417189;28;20045;-72
2023/12/02 08:15:48;;;;;;;14.25;9.77;;;;;;;13.07;88.33;100063.00;10417004;28;20819;-69
2023/12/02 08:20:49;;;;;;;14.50;9.07;;;;;;;13.57;86.23;100055.88;10425650;28;20083;-70
2023/12/02 08:25:49;;;;;;;13.73;8.40;;;;;;;13.92;83.15;100045.22;10440943;28;20563;-70
2023/12/02 08:30:50;;;;;;;17.35;8.40;;;;;;;14.14;82.19;100048.59;10416985;28;20099;-70
2023/12/02 08:35:51;;;;;;;11.48;7.10;;;;;;;13.75;81.76;100006.50;10445966;28;20041;-70
2023/12/02 08:40:52;;;;;;;13.90;7.30;;;;;;;13.91;81.45;100032.91;10457753;28;20044;-70
2023/12/02 08:45:52;;;;;;;11.98;6.70;;;;;;;13.74;80.78;99994.19;10456684;28;20500;-70
2023/12/02 08:50:53;;;;;;;11.88;6.25;;;;;;;14.14;79.99;100045.94;10450674;28;20038;-70
2023/12/02 08:55:54;;;;;;;14.02;5.50;;;;;;;14.24;79.51;100056.25;10415446;28;20037;-69
2023/12/02 09:00:55;;;;;;;8.63;4.88;;;;;;;14.12;77.91;100064.84;10415163;28;20041;-69
2023/12/02 09:05:56;;;;;;;8.68;4.22;;;;;;;14.39;76.65;100078.31;10415159;28;20037;-70
2023/12/02 09:10:57;;;;;;;7.45;3.60;;;;;;;14.41;74.23;100024.66;10415352;28;20045;-70
2023/12/02 09:16:00;;;;;;;8.90;3.15;;;;;;;14.74;70.98;100035.47;10414621;28;20502;-70
2023/12/02 09:21:01;;;;;;;6.80;3.65;;;;;;;14.80;71.09;100040.00;10414098;28;20088;-70
2023/12/02 09:26:21;;;;;;;11.20;4.28;;;;;;;15.00;71.37;100078.31;10414869;28;20456;-70
2023/12/02 09:31:24;;;;;;;15.43;4.40;;;;;;;15.02;69.83;100084.28;10413743;28;20056;-70
2023/12/02 09:36:39;;;;;;;9.93;4.28;;;;;;;15.06;67.00;100031.19;10413336;28;20040;-69
2023/12/02 09:41:50;;;;;;;17.60;4.50;;;;;;;15.10;68.23;100011.03;10409232;28;20045;-67
2023/12/02 09:47:04;;;;;;;12.05;3.42;;;;;;;15.43;66.77;100031.59;10413315;28;20039;-67
2023/12/02 09:52:28;;;;;;;11.70;3.17;;;;;;;15.15;65.43;99964.94;10429840;28;20052;-76
2023/12/02 09:57:51;;;;;;;11.32;3.30;;;;;;;15.37;65.08;99982.41;10448548;28;20042;-69
2023/12/02 10:03:03;;;;;;;12.45;3.03;;;;;;;15.85;67.48;100035.69;10438684;28;20052;-68
2023/12/02 10:08:25;;;;;;;9.45;2.58;;;;;;;16.03;66.14;100026.97;10452996;28;20052;-69
2023/12/02 10:13:36;;;;;;;5.28;1.98;;;;;;;16.12;67.08;100012.34;10453133;28;20072;-70
2023/12/02 10:18:42;;;;;;;7.13;2.70;;;;;;;16.30;69.72;100016.97;10448308;28;20131;-70
2023/12/02 10:24:05;;;;;;;4.88;2.38;;;;;;;16.27;70.12;99998.63;10451457;28;20060;-77
2023/12/02 10:29:15;;;;;;;4.63;1.52;;;;;;;16.35;70.25;99992.22;10453659;28;20045;-67
2023/12/02 10:34:31;;;;;;;5.15;1.92;;;;;;;16.56;68.27;99985.69;10440425;28;20497;-68
2023/12/02 10:39:44;;;;;;;9.57;1.90;;;;;;;16.53;67.73;99954.78;10449486;28;20128;-66
2023/12/02 10:44:47;;;;;;;6.55;1.70;;;;;;;16.90;68.56;99946.88;10441121;28;20078;-67
2023/12/02 10:49:49;;;;;;;9.20;2.00;;;;;;;17.25;68.61;99966.00;10452665;28;20055;-66
2023/12/02 10:54:53;;;;;;;8.95;1.75;;;;;;;17.39;67.26;99960.50;10439841;28;20041;-66
2023/12/02 11:00:12;;;;;;;8.07;2.20;;;;;;;17.17;64.77;99978.88;10439183;28;20136;-67
2023/12/02 11:05:26;;;;;;;6.03;1.60;;;;;;;16.81;63.87;99980.41;10442022;28;20123;-67
2023/12/02 11:10:43;;;;;;;6.53;1.50;;;;;;;16.84;66.26;99990.69;10422468;28;20037;-67
2023/12/02 11:16:05;;;;;;;6.60;1.65;;;;;;;17.05;67.48;99993.03;10459874;28;20037;-67
2023/12/02 11:21:15;;;;;;;13.55;2.00;;;;;;;17.14;69.83;99990.06;10447956;28;20061;-67
2023/12/02 11:26:19;;;;;;;4.75;1.77;;;;;;;17.17;68.66;99997.66;10461384;28;20033;-66
2023/12/02 11:31:28;;;;;;;5.15;2.15;;;;;;;17.26;69.75;100002.56;10459785;28;20131;-67
2023/12/02 11:36:58;;;;;;;7.25;1.88;;;;;;;16.78;69.09;99903.88;10461288;28;20194;-67
2023/12/02 11:42:16;;;;;;;4.72;1.85;;;;;;;17.42;70.02;99987.72;10458957;28;20032;-67
2023/12/02 11:47:28;;;;;;;3.42;1.58;;;;;;;17.18;69.28;99948.31;10460295;28;20080;-67
2023/12/02 11:53:05;;;;;;;6.60;1.60;;;;;;;17.49;66.85;99993.84;10442435;28;20044;-65
2023/12/02 11:58:37;;;;;;;4.70;1.60;;;;;;;17.39;67.95;99992.72;10397564;28;20044;-66
2023/12/02 12:03:44;;;;;;;14.73;1.92;;;;;;;17.12;70.09;99992.97;10446689;28;20051;-67
2023/12/02 12:09:12;;;;;;;6.50;1.52;;;;;;;16.92;67.17;99997.66;10440762;28;20056;-67
2023/12/02 12:14:14;;;;;;;10.77;2.10;;;;;;;16.64;68.93;99991.63;10458714;28;20052;-67
2023/12/02 12:19:15;;;;;;;15.65;2.03;;;;;;;16.46;70.39;99998.78;10458456;28;20037;-66
2023/12/02 12:24:15;;;;;;;5.68;2.25;;;;;;;16.16;71.45;99996.66;10457905;28;20048;-66
2023/12/02 12:29:16;;;;;;;10.65;2.42;;;;;;;15.91;72.52;99977.75;10436372;28;20589;-66
2023/12/02 12:34:18;;;;;;;18.38;2.55;;;;;;;15.81;73.48;100002.31;10458364;28;20489;-67
2023/12/02 12:39:20;;;;;;;25.63;2.72;;;;;;;15.39;74.22;99963.47;10443681;28;20409;-66
2023/12/02 12:44:20;;;;;;;16.88;3.17;;;;;;;15.44;75.26;99996.63;10449180;28;20133;-66
2023/12/02 12:49:24;;;;;;;21.23;3.63;;;;;;;15.25;77.00;100003.63;10438937;28;20152;-66
2023/12/02 12:54:30;;;;;;;8.50;2.78;;;;;;;15.10;78.65;100007.53;10393280;28;20049;-67
2023/12/02 12:59:34;;;;;;;7.35;2.50;;;;;;;14.90;80.00;100027.09;10413865;28;20079;-66
2023/12/02 13:04:37;;;;;;;5.97;2.55;;;;;;;14.73;80.32;100031.16;10428351;28;20106;-65
2023/12/02 13:09:48;;;;;;;11.15;4.68;;;;;;;14.26;81.88;99987.41;10455182;28;20071;-66
2023/12/02 13:14:53;;;;;;;14.40;4.20;;;;;;;14.09;82.66;100014.50;10456470;28;20519;-66
2023/12/02 13:19:59;;;;;;;30.00;7.57;;;;;;;14.11;84.55;100055.16;10437207;28;20042;-66
2023/12/02 13:25:03;;;;;;;23.77;11.43;;;;;;;13.88;85.23;100060.81;10417383;28;20057;-65
2023/12/02 13:30:06;;;;;;;40.47;12.33;;;;;;;13.00;85.81;99979.47;10443581;28;20041;-65
2023/12/02 13:35:11;;;;;;;37.97;10.35;;;;;;;13.29;87.15;100071.88;10410846;28;20370;-65
2023/12/02 13:40:14;;;;;;;32.53;13.15;;;;;;;12.55;88.53;100017.00;10388422;28;20099;-65
2023/12/02 13:45:18;;;;;;;44.17;16.85;;;;;;;12.64;89.43;100092.31;10397940;28;20124;-65
2023/12/02 13:50:20;;;;;;;;;;;;;;;12.61;90.01;100108.69;10400318;28;20170;-64
2023/12/02 13:55:38;;;;;;;50.95;20.08;;;;;;;12.10;91.94;100098.81;10418983;28;19925;-64
2023/12/02 14:00:49;;;;;;;57.40;24.05;;;;;;;11.97;93.71;100111.13;10455338;28;20053;-65
2023/12/02 14:06:02;;;;;;;59.45;23.38;;;;;;;11.90;95.18;100131.47;10427740;28;20034;-67
2023/12/02 14:11:08;;;;;;;48.58;20.88;;;;;;;11.56;94.07;100128.25;10412697;28;20042;-67
2023/12/02 14:16:34;;;;;;;74.38;25.02;;;;;;;11.47;96.36;100145.31;10407369;28;20063;-66
2023/12/02 14:21:55;;;;;;;53.70;16.33;;;;;;;11.33;96.33;100146.91;10411178;28;20111;-65
2023/12/02 14:26:56;;;;;;;74.20;40.38;;;;;;;11.11;95.00;100169.81;10405121;28;20068;-67
2023/12/02 14:32:14;;;;;;;61.20;25.75;;;;;;;10.88;98.24;100206.97;10400260;28;20042;-68
2023/12/02 14:37:23;;;;;;;42.90;27.58;;;;;;;10.67;99.52;100207.56;10408803;28;20041;-67
2023/12/02 14:42:46;;;;;;;27.85;16.05;;;;;;;10.42;100.00;100144.94;10407313;28;20120;-69
2023/12/02 14:48:00;;;;;;;21.02;12.38;;;;;;;10.85;98.21;100196.69;10420144;28;20037;-68
2023/12/02 14:53:08;;;;;;;32.22;13.93;;;;;;;10.48;98.46;100155.69;10417898;28;20050;-67
2023/12/02 14:58:23;;;;;;;27.10;14.18;;;;;;;10.67;100.00;100196.94;10414160;28;20136;-67
2023/12/02 15:03:28;;;;;;;28.30;14.55;;;;;;;9.90;98.30;100146.19;10419782;28;20045;-67
2023/12/02 15:08:46;;;;;;;49.78;27.15;;;;;;;10.39;100.00;100223.09;10420209;28;20458;-67
2023/12/02 15:13:50;;;;;;;130.15;70.38;;;;;;;10.29;99.25;100209.19;10419352;28;20498;-67
2023/12/02 15:18:52;;;;;;;138.35;78.15;;;;;;;10.33;100.00;100228.28;10418612;28;20500;-66
2023/12/02 15:23:53;;;;;;;109.93;54.65;;;;;;;10.38;99.59;100226.75;10418444;28;20398;-67
2023/12/02 15:28:54;;;;;;;108.13;64.32;;;;;;;10.29;99.99;100225.13;10419282;28;20136;-67
2023/12/02 15:33:58;;;;;;;102.93;57.97;;;;;;;10.03;100.00;100225.28;10423506;28;20044;-69
2023/12/02 15:38:59;;;;;;;98.25;53.63;;;;;;;9.77;100.00;100215.66;10443264;28;20044;-67
2023/12/02 15:44:01;;;;;;;112.22;61.17;;;;;;;9.44;100.00;100217.47;10448454;28;20047;-67
2023/12/02 15:49:01;;;;;;;121.70;61.70;;;;;;;9.25;100.00;100194.75;10460455;28;20072;-66
2023/12/02 15:54:03;;;;;;;121.40;52.92;;;;;;;9.08;100.00;100222.19;10445452;28;20080;-66
2023/12/02 15:59:09;;;;;;;86.18;43.03;;;;;;;8.93;100.00;100221.16;10418533;28;20045;-66
2023/12/02 16:04:13;;;;;;;73.18;41.83;;;;;;;8.60;100.00;100213.06;10418142;28;20053;-66
2023/12/02 16:09:21;;;;;;;80.67;44.97;;;;;;;8.64;100.00;100231.13;10418051;28;20091;-66
2023/12/02 16:14:22;;;;;;;66.25;34.50;;;;;;;8.13;100.00;100214.25;10417501;28;20137;-67
2023/12/02 16:19:25;;;;;;;61.33;28.48;;;;;;;7.88;100.00;100204.50;10415918;28;20060;-66
2023/12/02 16:24:26;;;;;;;48.53;23.17;;;;;;;8.06;100.00;100263.50;10416661;28;20065;-66
2023/12/02 16:29:27;;;;;;;51.60;23.90;;;;;;;7.71;100.00;100219.41;10417131;28;20045;-67
2023/12/02 16:34:31;;;;;;;39.58;20.58;;;;;;;7.73;100.00;100230.66;10415924;28;20436;-66
2023/12/02 16:39:33;;;;;;;52.10;23.33;;;;;;;7.65;100.00;100209.44;10416225;28;20057;-67
2023/12/02 16:44:34;;;;;;;34.30;17.60;;;;;;;7.82;100.00;100250.91;10419113;28;20505;-67
2023/12/02 16:49:35;;;;;;;31.38;16.05;;;;;;;7.59;100.00;100250.53;10439497;28;20041;-67
2023/12/02 16:54:36;;;;;;;37.97;16.60;;;;;;;7.59;100.00;100255.81;10442528;28;20071;-67
2023/12/02 16:59:49;;;;;;;46.72;18.13;;;;;;;7.51;100.00;100248.66;10454907;28;20041;-66
2023/12/02 17:04:50;;;;;;;32.70;17.38;;;;;;;7.51;100.00;100245.19;10417921;28;20037;-67
2023/12/02 17:09:50;;;;;;;42.53;18.58;;;;;;;7.46;100.00;100253.53;10406250;28;20037;-66
2023/12/02 17:14:51;;;;;;;33.85;17.45;;;;;;;7.10;100.00;100247.38;10413458;28;20181;-67
2023/12/02 17:19:52;;;;;;;40.78;17.52;;;;;;;6.91;100.00;100245.69;10415038;28;20132;-66
2023/12/02 17:24:53;;;;;;;34.33;16.75;;;;;;;6.97;100.00;100260.94;10415503;28;20488;-67
2023/12/02 17:29:54;;;;;;;32.75;15.65;;;;;;;6.93;100.00;100280.69;10416789;28;20191;-67
2023/12/02 17:34:55;;;;;;;30.83;14.70;;;;;;;6.75;100.00;100267.41;10446857;28;20118;-67
2023/12/02 17:39:56;;;;;;;36.42;18.25;;;;;;;6.80;100.00;100296.88;10455206;28;20041;-65
2023/12/02 17:44:57;;;;;;;44.67;19.92;;;;;;;6.66;100.00;100307.88;10455518;28;20075;-68
2023/12/02 17:49:58;;;;;;;46.05;19.98;;;;;;;6.59;100.00;100307.63;10454794;28;20507;-67
2023/12/02 17:54:59;;;;;;;50.58;19.90;;;;;;;6.61;100.00;100310.97;10454320;28;20120;-67
2023/12/02 18:00:00;;;;;;;46.15;19.77;;;;;;;5.91;100.00;100217.22;10455165;28;20439;-67
2023/12/02 18:05:02;;;;;;;57.78;22.80;;;;;;;5.96;100.00;100259.03;10441706;28;20041;-67
2023/12/02 18:10:04;;;;;;;71.95;30.25;;;;;;;6.30;100.00;100322.69;10454467;28;20036;-66
2023/12/02 18:15:05;;;;;;;74.63;32.33;;;;;;;5.88;100.00;100272.84;10453751;28;20516;-66
2023/12/02 18:20:06;;;;;;;71.80;29.17;;;;;;;6.06;100.00;100321.31;10455165;28;20120;-66
2023/12/02 18:25:07;;;;;;;51.55;21.65;;;;;;;6.04;100.00;100319.78;10454570;28;20542;-66
2023/12/02 18:30:09;;;;;;;44.60;16.67;;;;;;;6.02;100.00;100308.56;10453847;28;20064;-66
2023/12/02 18:35:10;;;;;;;61.60;24.73;;;;;;;5.99;100.00;100299.13;10441640;28;20098;-66
2023/12/02 18:40:11;;;;;;;75.03;30.63;;;;;;;6.09;100.00;100299.09;10453809;28;20118;-66
2023/12/02 18:45:12;;;;;;;90.65;33.85;;;;;;;5.79;100.00;100242.88;10453394;28;20412;-66
2023/12/02 18:50:13;;;;;;;68.70;28.42;;;;;;;6.08;100.00;100294.81;10453282;28;20037;-66
2023/12/02 18:55:14;;;;;;;73.25;28.58;;;;;;;5.70;100.00;100239.28;10453383;28;20072;-66
2023/12/02 19:00:15;;;;;;;95.05;37.35;;;;;;;6.05;100.00;100287.19;10453030;28;20045;-66
2023/12/02 19:05:16;;;;;;;89.90;33.05;;;;;;;5.84;100.00;100260.94;10453523;28;20036;-66
2023/12/02 19:10:17;;;;;;;81.28;32.13;;;;;;;5.98;100.00;100278.16;10441102;28;20049;-67
2023/12/02 19:15:19;;;;;;;58.22;32.40;;;;;;;6.00;100.00;100279.69;10453667;28;20076;-66
2023/12/02 19:20:20;;;;;;;64.38;29.77;;;;;;;5.93;100.00;100275.94;10434312;28;20037;-67
2023/12/02 19:25:20;;;;;;;72.10;28.50;;;;;;;5.86;100.00;100273.00;10421520;28;20061;-66
2023/12/02 19:30:22;;;;;;;63.90;28.40;;;;;;;5.87;100.00;100284.38;10451804;28;20044;-67
2023/12/02 19:35:23;;;;;;;66.13;30.02;;;;;;;5.83;100.00;100281.16;10459566;28;20040;-66
2023/12/02 19:40:24;;;;;;;76.28;30.95;;;;;;;5.68;100.00;100272.00;10459799;28;20046;-65
2023/12/02 19:45:26;;;;;;;71.57;33.50;;;;;;;5.79;100.00;100276.34;10460071;28;20123;-65
2023/12/02 19:50:27;;;;;;;80.70;30.60;;;;;;;5.72;100.00;100271.63;10447126;28;20047;-66
2023/12/02 19:55:28;;;;;;;71.95;27.27;;;;;;;5.40;100.00;100227.06;10459353;28;20048;-67
2023/12/02 20:00:29;;;;;;;78.43;35.45;;;;;;;5.77;100.00;100263.28;10460311;28;20037;-67
2023/12/02 20:05:29;;;;;;;54.25;26.10;;;;;;;5.74;100.00;100271.47;10458874;28;20586;-67
2023/12/02 20:10:30;;;;;;;59.47;23.17;;;;;;;5.62;100.00;100270.75;10459331;28;20037;-67
2023/12/02 20:15:31;;;;;;;131.82;44.25;;;;;;;5.33;100.00;100236.50;10457200;28;20559;-67
2023/12/02 20:20:33;;;;;;;73.95;26.33;;;;;;;5.07;100.00;100195.84;10445973;28;20515;-67
2023/12/02 20:25:34;;;;;;;217.77;66.72;;;;;;;4.97;100.00;100204.56;10441416;28;20415;-67
2023/12/02 20:30:35;;;;;;;86.55;30.00;;;;;;;5.21;100.00;100264.75;10457927;28;20123;-67
2023/12/02 20:35:36;;;;;;;49.40;19.50;;;;;;;5.12;100.00;100249.78;10457677;28;20045;-67
2023/12/02 20:40:36;;;;;;;29.13;13.43;;;;;;;5.22;100.00;100257.69;10457615;28;20071;-67
2023/12/02 20:45:37;;;;;;;36.40;16.48;;;;;;;5.08;100.00;100240.47;10457125;28;20045;-67
2023/12/02 20:50:38;;;;;;;34.45;15.68;;;;;;;4.92;100.00;100206.75;10456997;28;20091;-67
2023/12/02 20:55:39;;;;;;;33.70;16.48;;;;;;;5.52;100.00;100271.75;10457204;28;20045;-68
2023/12/02 21:00:39;;;;;;;51.65;19.58;;;;;;;5.48;100.00;100244.84;10456474;28;20039;-68
2023/12/02 21:05:40;;;;;;;48.22;19.30;;;;;;;5.56;100.00;100223.06;10458132;28;20111;-65
2023/12/02 21:10:41;;;;;;;49.92;19.65;;;;;;;5.94;100.00;100272.34;10456771;28;20296;-65
2023/12/02 21:15:42;;;;;;;62.30;20.23;;;;;;;6.06;100.00;100278.28;10456687;28;20049;-65
2023/12/02 21:20:43;;;;;;;69.10;27.75;;;;;;;6.07;100.00;100285.22;10456789;28;20036;-65
2023/12/02 21:25:44;;;;;;;54.75;24.83;;;;;;;5.89;100.00;100262.19;10456649;28;20090;-66
2023/12/02 21:30:45;;;;;;;58.33;24.50;;;;;;;6.03;100.00;100295.22;10455439;28;20048;-66
2023/12/02 21:35:56;;;;;;;48.70;20.55;;;;;;;5.98;100.00;100297.44;10455785;28;20401;-66
2023/12/02 21:40:56;;;;;;;31.67;16.52;;;;;;;5.87;100.00;100297.56;10453971;28;20075;-66
2023/12/02 21:45:58;;;;;;;39.30;15.38;;;;;;;5.87;100.00;100295.75;10455020;28;20036;-66
2023/12/02 21:50:59;;;;;;;31.17;13.38;;;;;;;5.91;100.00;100297.13;10455538;28;20501;-66
2023/12/02 21:56:00;;;;;;;31.75;14.50;;;;;;;5.74;100.00;100282.00;10455377;28;20039;-66
2023/12/02 22:01:06;;;;;;;26.33;12.98;;;;;;;5.78;100.00;100290.50;10455201;28;20140;-66
2023/12/02 22:06:41;;;;;;;27.13;13.63;;;;;;;5.75;100.00;100298.69;10422422;28;20041;-66
2023/12/02 22:11:42;;;;;;;21.70;11.82;;;;;;;5.68;100.00;100291.31;10413987;28;20053;-66
2023/12/02 22:16:42;;;;;;;23.08;11.60;;;;;;;5.72;100.00;100302.41;10412894;28;20045;-66
2023/12/02 22:21:43;;;;;;;25.08;11.55;;;;;;;5.65;100.00;100290.75;10412737;28;20057;-67
2023/12/02 22:26:45;;;;;;;21.13;11.88;;;;;;;5.55;100.00;100282.84;10413703;28;20055;-66
2023/12/02 22:31:45;;;;;;;21.50;11.73;;;;;;;5.55;100.00;100289.91;10413391;28;20477;-66
2023/12/02 22:36:47;;;;;;;19.13;10.80;;;;;;;5.59;100.00;100289.47;10412505;28;20132;-66
2023/12/02 22:41:56;;;;;;;28.73;11.95;;;;;;;5.32;100.00;100248.00;10411600;28;20084;-66
2023/12/02 22:46:58;;;;;;;27.50;11.95;;;;;;;5.46;100.00;100296.84;10411930;28;20045;-66
2023/12/02 22:52:01;;;;;;;22.50;11.93;;;;;;;5.39;100.00;100293.09;10433428;28;20121;-66
2023/12/02 22:57:03;;;;;;;22.38;12.43;;;;;;;5.28;100.00;100294.03;10433803;28;20132;-66